sensor_id;sensor_type;location;lat;lon;timestamp;temperature;humidity
12413;DHT22;13877;18.896;-99.222;2023-09-18T00:00:45;28.40;1.00
12413;DHT22;13877;18.896;-99.222;2023-09-18T00:03:13;27.90;1.00
12413;DHT22;13877;18.896;-99.222;2023-09-18T00:05:40;27.50;1.00
12413;DHT22;13877;18.896;-99.222;2023-09-18T00:08:07;26.90;1.00
12413;DHT22;13877;18.896;-99.222;2023-09-18T00:10:35;26.50;1.00
12413;DHT22;13877;18.896;-99.222;2023-09-18T00:13:02;26.20;1.00
12413;DHT22;13877;18.896;-99.222;2023-09-18T00:15:31;25.90;1.00
12413;DHT22;13877;18.896;-99.222;2023-09-18T00:17:58;25.60;1.00
12413;DHT22;13877;18.896;-99.222;2023-09-18T00:20:25;25.40;1.00
12413;DHT22;13877;18.896;-99.222;2023-09-18T00:22:57;25.30;1.00
12413;DHT22;13877;18.896;-99.222;2023-09-18T00:25:24;25.20;1.00
12413;DHT22;13877;18.896;-99.222;2023-09-18T00:27:53;25.10;1.00
12413;DHT22;13877;18.896;-99.222;2023-09-18T00:30:21;25.00;1.00
12413;DHT22;13877;18.896;-99.222;2023-09-18T00:32:48;24.90;1.00
12413;DHT22;13877;18.896;-99.222;2023-09-18T00:35:16;24.80;1.00
12413;DHT22;13877;18.896;-99.222;2023-09-18T00:37:45;24.70;1.00
12413;DHT22;13877;18.896;-99.222;2023-09-18T00:40:12;24.70;1.00
12413;DHT22;13877;18.896;-99.222;2023-09-18T00:42:46;24.60;1.00
12413;DHT22;13877;18.896;-99.222;2023-09-18T00:45:13;24.50;1.00
12413;DHT22;13877;18.896;-99.222;2023-09-18T00:47:41;24.40;1.00
12413;DHT22;13877;18.896;-99.222;2023-09-18T00:50:10;24.40;1.00
12413;DHT22;13877;18.896;-99.222;2023-09-18T00:52:38;24.30;1.00
12413;DHT22;13877;18.896;-99.222;2023-09-18T00:55:06;24.20;1.00
12413;DHT22;13877;18.896;-99.222;2023-09-18T00:57:34;24.20;1.00
12413;DHT22;13877;18.896;-99.222;2023-09-18T01:00:04;24.20;1.00
12413;DHT22;13877;18.896;-99.222;2023-09-18T01:02:36;24.10;1.00
12413;DHT22;13877;18.896;-99.222;2023-09-18T01:05:05;24.00;1.00
12413;DHT22;13877;18.896;-99.222;2023-09-18T01:07:33;23.90;1.00
12413;DHT22;13877;18.896;-99.222;2023-09-18T01:10:00;23.80;1.00
12413;DHT22;13877;18.896;-99.222;2023-09-18T01:12:38;23.80;1.00
12413;DHT22;13877;18.896;-99.222;2023-09-18T01:15:20;23.80;1.00
12413;DHT22;13877;18.896;-99.222;2023-09-18T01:17:50;23.70;1.00
12413;DHT22;13877;18.896;-99.222;2023-09-18T01:20:17;23.70;1.00
12413;DHT22;13877;18.896;-99.222;2023-09-18T01:22:45;23.70;1.00
12413;DHT22;13877;18.896;-99.222;2023-09-18T01:25:12;23.70;1.00
12413;DHT22;13877;18.896;-99.222;2023-09-18T01:27:39;23.70;1.00
12413;DHT22;13877;18.896;-99.222;2023-09-18T01:30:07;23.80;1.00
12413;DHT22;13877;18.896;-99.222;2023-09-18T01:32:36;23.90;1.00
12413;DHT22;13877;18.896;-99.222;2023-09-18T01:35:05;23.80;1.00
12413;DHT22;13877;18.896;-99.222;2023-09-18T01:37:34;23.80;1.00
12413;DHT22;13877;18.896;-99.222;2023-09-18T01:40:05;23.60;1.00
12413;DHT22;13877;18.896;-99.222;2023-09-18T01:42:34;23.60;1.00
12413;DHT22;13877;18.896;-99.222;2023-09-18T01:45:02;23.50;1.00
12413;DHT22;13877;18.896;-99.222;2023-09-18T01:47:29;23.40;1.00
12413;DHT22;13877;18.896;-99.222;2023-09-18T01:49:57;23.20;1.00
12413;DHT22;13877;18.896;-99.222;2023-09-18T01:52:25;23.00;1.00
12413;DHT22;13877;18.896;-99.222;2023-09-18T01:54:53;22.90;1.00
12413;DHT22;13877;18.896;-99.222;2023-09-18T01:57:20;22.80;1.00
12413;DHT22;13877;18.896;-99.222;2023-09-18T01:59:47;22.70;1.00
12413;DHT22;13877;18.896;-99.222;2023-09-18T02:02:15;22.70;1.00
12413;DHT22;13877;18.896;-99.222;2023-09-18T02:04:42;22.80;1.00
12413;DHT22;13877;18.896;-99.222;2023-09-18T02:07:09;22.80;1.00
12413;DHT22;13877;18.896;-99.222;2023-09-18T02:09:37;22.70;1.00
12413;DHT22;13877;18.896;-99.222;2023-09-18T02:12:04;22.40;1.00
12413;DHT22;13877;18.896;-99.222;2023-09-18T02:14:32;22.20;1.00
12413;DHT22;13877;18.896;-99.222;2023-09-18T02:17:00;22.10;1.00
12413;DHT22;13877;18.896;-99.222;2023-09-18T02:19:27;22.10;1.00
12413;DHT22;13877;18.896;-99.222;2023-09-18T02:21:56;22.10;1.00
12413;DHT22;13877;18.896;-99.222;2023-09-18T02:24:24;22.10;1.00
12413;DHT22;13877;18.896;-99.222;2023-09-18T02:26:51;22.00;1.00
12413;DHT22;13877;18.896;-99.222;2023-09-18T02:29:18;22.00;1.00
12413;DHT22;13877;18.896;-99.222;2023-09-18T02:31:45;21.80;1.00
12413;DHT22;13877;18.896;-99.222;2023-09-18T02:34:12;21.70;1.00
12413;DHT22;13877;18.896;-99.222;2023-09-18T02:36:40;21.60;1.00
12413;DHT22;13877;18.896;-99.222;2023-09-18T02:39:07;21.60;1.00
12413;DHT22;13877;18.896;-99.222;2023-09-18T02:41:34;21.60;1.00
12413;DHT22;13877;18.896;-99.222;2023-09-18T02:44:01;21.60;1.00
12413;DHT22;13877;18.896;-99.222;2023-09-18T02:46:29;22.00;1.00
12413;DHT22;13877;18.896;-99.222;2023-09-18T02:48:56;22.00;1.00
12413;DHT22;13877;18.896;-99.222;2023-09-18T02:51:23;22.00;1.00
12413;DHT22;13877;18.896;-99.222;2023-09-18T02:53:50;21.90;1.00
12413;DHT22;13877;18.896;-99.222;2023-09-18T02:56:18;21.80;1.00
12413;DHT22;13877;18.896;-99.222;2023-09-18T02:58:45;21.60;1.00
12413;DHT22;13877;18.896;-99.222;2023-09-18T03:01:13;21.60;1.00
12413;DHT22;13877;18.896;-99.222;2023-09-18T03:03:40;21.60;1.00
12413;DHT22;13877;18.896;-99.222;2023-09-18T03:06:08;21.40;1.00
12413;DHT22;13877;18.896;-99.222;2023-09-18T03:08:36;21.20;1.00
12413;DHT22;13877;18.896;-99.222;2023-09-18T03:11:11;21.00;1.00
12413;DHT22;13877;18.896;-99.222;2023-09-18T03:13:44;20.90;1.00
12413;DHT22;13877;18.896;-99.222;2023-09-18T03:16:17;20.90;1.00
12413;DHT22;13877;18.896;-99.222;2023-09-18T03:18:46;21.10;1.00
12413;DHT22;13877;18.896;-99.222;2023-09-18T03:21:13;21.20;1.00
12413;DHT22;13877;18.896;-99.222;2023-09-18T03:23:40;21.10;1.00
12413;DHT22;13877;18.896;-99.222;2023-09-18T03:26:07;21.20;1.00
12413;DHT22;13877;18.896;-99.222;2023-09-18T03:28:35;21.60;1.00
12413;DHT22;13877;18.896;-99.222;2023-09-18T03:31:02;21.90;1.00
12413;DHT22;13877;18.896;-99.222;2023-09-18T03:33:31;22.00;1.00
12413;DHT22;13877;18.896;-99.222;2023-09-18T03:35:58;22.20;1.00
12413;DHT22;13877;18.896;-99.222;2023-09-18T03:38:28;22.30;1.00
12413;DHT22;13877;18.896;-99.222;2023-09-18T03:41:00;22.30;1.00
12413;DHT22;13877;18.896;-99.222;2023-09-18T03:43:28;22.40;1.00
12413;DHT22;13877;18.896;-99.222;2023-09-18T03:45:55;22.30;1.00
12413;DHT22;13877;18.896;-99.222;2023-09-18T03:48:23;22.30;1.00
12413;DHT22;13877;18.896;-99.222;2023-09-18T03:50:50;22.30;1.00
12413;DHT22;13877;18.896;-99.222;2023-09-18T03:53:17;22.30;1.00
12413;DHT22;13877;18.896;-99.222;2023-09-18T03:55:45;22.30;1.00
12413;DHT22;13877;18.896;-99.222;2023-09-18T03:58:12;22.20;1.00
12413;DHT22;13877;18.896;-99.222;2023-09-18T04:00:39;22.20;1.00
12413;DHT22;13877;18.896;-99.222;2023-09-18T04:03:07;22.10;1.00
12413;DHT22;13877;18.896;-99.222;2023-09-18T04:05:35;22.10;1.00
12413;DHT22;13877;18.896;-99.222;2023-09-18T04:08:03;22.10;1.00
12413;DHT22;13877;18.896;-99.222;2023-09-18T04:10:30;22.00;1.00
12413;DHT22;13877;18.896;-99.222;2023-09-18T04:12:58;21.90;1.00
12413;DHT22;13877;18.896;-99.222;2023-09-18T04:15:25;21.80;1.00
12413;DHT22;13877;18.896;-99.222;2023-09-18T04:17:52;21.60;1.00
12413;DHT22;13877;18.896;-99.222;2023-09-18T04:20:19;21.60;1.00
12413;DHT22;13877;18.896;-99.222;2023-09-18T04:22:47;21.50;1.00
12413;DHT22;13877;18.896;-99.222;2023-09-18T04:25:35;21.60;1.00
12413;DHT22;13877;18.896;-99.222;2023-09-18T04:28:05;21.60;1.00
12413;DHT22;13877;18.896;-99.222;2023-09-18T04:30:34;21.50;1.00
12413;DHT22;13877;18.896;-99.222;2023-09-18T04:33:02;21.50;1.00
12413;DHT22;13877;18.896;-99.222;2023-09-18T04:35:30;21.30;1.00
12413;DHT22;13877;18.896;-99.222;2023-09-18T04:37:59;21.20;1.00
12413;DHT22;13877;18.896;-99.222;2023-09-18T04:40:27;21.10;1.00
12413;DHT22;13877;18.896;-99.222;2023-09-18T04:42:59;21.20;1.00
12413;DHT22;13877;18.896;-99.222;2023-09-18T04:45:27;21.10;1.00
12413;DHT22;13877;18.896;-99.222;2023-09-18T04:47:54;21.00;1.00
12413;DHT22;13877;18.896;-99.222;2023-09-18T04:50:21;21.00;1.00
12413;DHT22;13877;18.896;-99.222;2023-09-18T04:52:49;20.90;1.00
12413;DHT22;13877;18.896;-99.222;2023-09-18T04:55:17;21.00;1.00
12413;DHT22;13877;18.896;-99.222;2023-09-18T04:57:44;21.00;1.00
12413;DHT22;13877;18.896;-99.222;2023-09-18T05:00:12;21.10;1.00
12413;DHT22;13877;18.896;-99.222;2023-09-18T05:02:40;21.10;1.00
12413;DHT22;13877;18.896;-99.222;2023-09-18T05:05:07;21.20;1.00
12413;DHT22;13877;18.896;-99.222;2023-09-18T05:07:35;21.10;1.00
12413;DHT22;13877;18.896;-99.222;2023-09-18T05:10:03;21.10;1.00
12413;DHT22;13877;18.896;-99.222;2023-09-18T05:12:31;21.00;1.00
12413;DHT22;13877;18.896;-99.222;2023-09-18T05:14:58;21.00;1.00
12413;DHT22;13877;18.896;-99.222;2023-09-18T05:17:44;20.90;1.00
12413;DHT22;13877;18.896;-99.222;2023-09-18T05:20:15;21.10;1.00
12413;DHT22;13877;18.896;-99.222;2023-09-18T05:22:43;21.00;1.00
12413;DHT22;13877;18.896;-99.222;2023-09-18T05:25:11;20.90;1.00
12413;DHT22;13877;18.896;-99.222;2023-09-18T05:27:39;20.80;1.00
12413;DHT22;13877;18.896;-99.222;2023-09-18T05:30:13;20.90;1.00
12413;DHT22;13877;18.896;-99.222;2023-09-18T05:32:42;21.00;1.00
12413;DHT22;13877;18.896;-99.222;2023-09-18T05:35:11;21.00;1.00
12413;DHT22;13877;18.896;-99.222;2023-09-18T05:37:39;21.10;1.00
12413;DHT22;13877;18.896;-99.222;2023-09-18T05:40:08;21.20;1.00
12413;DHT22;13877;18.896;-99.222;2023-09-18T05:42:40;21.40;1.00
12413;DHT22;13877;18.896;-99.222;2023-09-18T05:45:11;21.40;1.00
12413;DHT22;13877;18.896;-99.222;2023-09-18T05:47:39;21.50;1.00
12413;DHT22;13877;18.896;-99.222;2023-09-18T05:50:08;21.40;1.00
12413;DHT22;13877;18.896;-99.222;2023-09-18T05:52:35;21.30;1.00
12413;DHT22;13877;18.896;-99.222;2023-09-18T05:55:03;21.30;1.00
12413;DHT22;13877;18.896;-99.222;2023-09-18T05:57:30;21.20;1.00
12413;DHT22;13877;18.896;-99.222;2023-09-18T05:59:57;21.10;1.00
12413;DHT22;13877;18.896;-99.222;2023-09-18T06:02:25;21.20;1.00
12413;DHT22;13877;18.896;-99.222;2023-09-18T06:04:56;21.20;1.00
12413;DHT22;13877;18.896;-99.222;2023-09-18T06:07:30;21.10;1.00
12413;DHT22;13877;18.896;-99.222;2023-09-18T06:09:57;21.20;1.00
12413;DHT22;13877;18.896;-99.222;2023-09-18T06:12:25;21.00;1.00
12413;DHT22;13877;18.896;-99.222;2023-09-18T06:14:52;20.90;1.00
12413;DHT22;13877;18.896;-99.222;2023-09-18T06:17:20;21.00;1.00
12413;DHT22;13877;18.896;-99.222;2023-09-18T06:19:48;21.00;1.00
12413;DHT22;13877;18.896;-99.222;2023-09-18T06:22:15;21.00;1.00
12413;DHT22;13877;18.896;-99.222;2023-09-18T06:24:42;21.10;1.00
12413;DHT22;13877;18.896;-99.222;2023-09-18T06:27:09;20.90;1.00
12413;DHT22;13877;18.896;-99.222;2023-09-18T06:29:37;20.90;1.00
12413;DHT22;13877;18.896;-99.222;2023-09-18T06:32:06;20.70;1.00
12413;DHT22;13877;18.896;-99.222;2023-09-18T06:34:33;20.60;1.00
12413;DHT22;13877;18.896;-99.222;2023-09-18T06:37:00;20.50;1.00
12413;DHT22;13877;18.896;-99.222;2023-09-18T06:39:27;20.30;1.00
12413;DHT22;13877;18.896;-99.222;2023-09-18T06:41:56;20.20;1.00
12413;DHT22;13877;18.896;-99.222;2023-09-18T06:44:24;20.10;1.00
12413;DHT22;13877;18.896;-99.222;2023-09-18T06:46:51;20.00;1.00
12413;DHT22;13877;18.896;-99.222;2023-09-18T06:49:20;19.90;1.00
12413;DHT22;13877;18.896;-99.222;2023-09-18T06:51:47;19.90;1.00
12413;DHT22;13877;18.896;-99.222;2023-09-18T06:54:14;20.00;1.00
12413;DHT22;13877;18.896;-99.222;2023-09-18T06:56:42;20.00;1.00
12413;DHT22;13877;18.896;-99.222;2023-09-18T06:59:11;19.90;1.00
12413;DHT22;13877;18.896;-99.222;2023-09-18T07:01:41;19.90;1.00
12413;DHT22;13877;18.896;-99.222;2023-09-18T07:04:09;19.90;1.00
12413;DHT22;13877;18.896;-99.222;2023-09-18T07:06:37;20.00;1.00
12413;DHT22;13877;18.896;-99.222;2023-09-18T07:09:04;20.00;1.00
12413;DHT22;13877;18.896;-99.222;2023-09-18T07:11:34;20.00;1.00
12413;DHT22;13877;18.896;-99.222;2023-09-18T07:14:01;20.10;1.00
12413;DHT22;13877;18.896;-99.222;2023-09-18T07:16:33;20.10;1.00
12413;DHT22;13877;18.896;-99.222;2023-09-18T07:19:00;20.10;1.00
12413;DHT22;13877;18.896;-99.222;2023-09-18T07:21:31;20.10;1.00
12413;DHT22;13877;18.896;-99.222;2023-09-18T07:23:58;20.20;1.00
12413;DHT22;13877;18.896;-99.222;2023-09-18T07:26:25;20.10;1.00
12413;DHT22;13877;18.896;-99.222;2023-09-18T07:28:52;19.90;1.00
12413;DHT22;13877;18.896;-99.222;2023-09-18T07:31:20;19.70;1.00
12413;DHT22;13877;18.896;-99.222;2023-09-18T07:33:47;19.70;1.00
12413;DHT22;13877;18.896;-99.222;2023-09-18T07:36:15;19.50;1.00
12413;DHT22;13877;18.896;-99.222;2023-09-18T07:38:42;19.40;1.00
12413;DHT22;13877;18.896;-99.222;2023-09-18T07:41:10;19.30;1.00
12413;DHT22;13877;18.896;-99.222;2023-09-18T07:43:37;19.30;1.00
12413;DHT22;13877;18.896;-99.222;2023-09-18T07:46:06;19.40;1.00
12413;DHT22;13877;18.896;-99.222;2023-09-18T07:48:33;19.40;1.00
12413;DHT22;13877;18.896;-99.222;2023-09-18T07:51:02;19.40;1.00
12413;DHT22;13877;18.896;-99.222;2023-09-18T07:53:29;19.40;1.00
12413;DHT22;13877;18.896;-99.222;2023-09-18T07:55:57;19.20;1.00
12413;DHT22;13877;18.896;-99.222;2023-09-18T07:58:25;19.00;1.00
12413;DHT22;13877;18.896;-99.222;2023-09-18T08:00:55;19.10;1.00
12413;DHT22;13877;18.896;-99.222;2023-09-18T08:03:26;19.10;1.00
12413;DHT22;13877;18.896;-99.222;2023-09-18T08:05:54;19.10;1.00
12413;DHT22;13877;18.896;-99.222;2023-09-18T08:08:22;19.10;1.00
12413;DHT22;13877;18.896;-99.222;2023-09-18T08:10:53;19.30;1.00
12413;DHT22;13877;18.896;-99.222;2023-09-18T08:13:20;19.60;1.00
12413;DHT22;13877;18.896;-99.222;2023-09-18T08:15:48;19.50;1.00
12413;DHT22;13877;18.896;-99.222;2023-09-18T08:18:15;19.30;1.00
12413;DHT22;13877;18.896;-99.222;2023-09-18T08:20:43;19.20;1.00
12413;DHT22;13877;18.896;-99.222;2023-09-18T08:23:13;19.00;1.00
12413;DHT22;13877;18.896;-99.222;2023-09-18T08:25:40;19.00;1.00
12413;DHT22;13877;18.896;-99.222;2023-09-18T08:28:07;19.10;1.00
12413;DHT22;13877;18.896;-99.222;2023-09-18T08:30:35;19.30;1.00
12413;DHT22;13877;18.896;-99.222;2023-09-18T08:33:03;19.30;1.00
12413;DHT22;13877;18.896;-99.222;2023-09-18T08:35:31;19.20;1.00
12413;DHT22;13877;18.896;-99.222;2023-09-18T08:37:58;19.20;1.00
12413;DHT22;13877;18.896;-99.222;2023-09-18T08:40:26;19.30;1.00
12413;DHT22;13877;18.896;-99.222;2023-09-18T08:42:56;19.40;1.00
12413;DHT22;13877;18.896;-99.222;2023-09-18T08:45:36;19.30;1.00
12413;DHT22;13877;18.896;-99.222;2023-09-18T08:48:05;19.10;1.00
12413;DHT22;13877;18.896;-99.222;2023-09-18T08:50:33;18.90;1.00
12413;DHT22;13877;18.896;-99.222;2023-09-18T08:53:01;18.80;1.00
12413;DHT22;13877;18.896;-99.222;2023-09-18T08:55:29;18.80;1.00
12413;DHT22;13877;18.896;-99.222;2023-09-18T08:57:58;18.60;1.00
12413;DHT22;13877;18.896;-99.222;2023-09-18T09:00:26;18.50;1.00
12413;DHT22;13877;18.896;-99.222;2023-09-18T09:02:54;18.50;1.00
12413;DHT22;13877;18.896;-99.222;2023-09-18T09:05:21;18.40;1.00
12413;DHT22;13877;18.896;-99.222;2023-09-18T09:07:50;18.30;1.00
12413;DHT22;13877;18.896;-99.222;2023-09-18T09:10:17;18.20;1.00
12413;DHT22;13877;18.896;-99.222;2023-09-18T09:15:19;18.40;1.00
12413;DHT22;13877;18.896;-99.222;2023-09-18T09:17:46;18.50;1.00
12413;DHT22;13877;18.896;-99.222;2023-09-18T09:20:15;18.50;1.00
12413;DHT22;13877;18.896;-99.222;2023-09-18T09:22:44;18.50;1.00
12413;DHT22;13877;18.896;-99.222;2023-09-18T09:27:48;18.70;1.00
12413;DHT22;13877;18.896;-99.222;2023-09-18T09:30:22;18.80;1.00
12413;DHT22;13877;18.896;-99.222;2023-09-18T09:32:51;18.90;1.00
12413;DHT22;13877;18.896;-99.222;2023-09-18T09:35:27;18.90;1.00
12413;DHT22;13877;18.896;-99.222;2023-09-18T09:37:57;18.70;1.00
12413;DHT22;13877;18.896;-99.222;2023-09-18T09:40:26;18.40;1.00
12413;DHT22;13877;18.896;-99.222;2023-09-18T09:42:55;18.30;1.00
12413;DHT22;13877;18.896;-99.222;2023-09-18T09:45:28;18.30;1.00
12413;DHT22;13877;18.896;-99.222;2023-09-18T09:48:06;18.40;1.00
12413;DHT22;13877;18.896;-99.222;2023-09-18T09:50:46;18.60;1.00
12413;DHT22;13877;18.896;-99.222;2023-09-18T09:53:15;18.70;1.00
12413;DHT22;13877;18.896;-99.222;2023-09-18T09:55:42;18.50;1.00
12413;DHT22;13877;18.896;-99.222;2023-09-18T09:58:11;18.40;1.00
12413;DHT22;13877;18.896;-99.222;2023-09-18T10:00:45;18.30;1.00
12413;DHT22;13877;18.896;-99.222;2023-09-18T10:03:16;18.20;1.00
12413;DHT22;13877;18.896;-99.222;2023-09-18T10:05:46;18.10;1.00
12413;DHT22;13877;18.896;-99.222;2023-09-18T10:10:49;18.00;1.00
12413;DHT22;13877;18.896;-99.222;2023-09-18T10:16:19;18.00;1.00
12413;DHT22;13877;18.896;-99.222;2023-09-18T10:19:24;18.00;1.00
12413;DHT22;13877;18.896;-99.222;2023-09-18T10:24:39;17.80;1.00
12413;DHT22;13877;18.896;-99.222;2023-09-18T10:27:07;18.00;1.00
12413;DHT22;13877;18.896;-99.222;2023-09-18T10:29:36;18.00;1.00
12413;DHT22;13877;18.896;-99.222;2023-09-18T10:32:04;18.10;1.00
12413;DHT22;13877;18.896;-99.222;2023-09-18T10:34:35;18.20;1.00
12413;DHT22;13877;18.896;-99.222;2023-09-18T10:37:03;18.30;1.00
12413;DHT22;13877;18.896;-99.222;2023-09-18T10:39:37;18.40;1.00
12413;DHT22;13877;18.896;-99.222;2023-09-18T10:42:05;18.40;1.00
12413;DHT22;13877;18.896;-99.222;2023-09-18T10:44:34;18.70;1.00
12413;DHT22;13877;18.896;-99.222;2023-09-18T10:47:03;18.90;1.00
12413;DHT22;13877;18.896;-99.222;2023-09-18T10:49:33;18.80;1.00
12413;DHT22;13877;18.896;-99.222;2023-09-18T10:52:01;18.80;1.00
12413;DHT22;13877;18.896;-99.222;2023-09-18T10:54:31;18.80;1.00
12413;DHT22;13877;18.896;-99.222;2023-09-18T10:56:58;18.70;1.00
12413;DHT22;13877;18.896;-99.222;2023-09-18T10:59:28;18.70;1.00
12413;DHT22;13877;18.896;-99.222;2023-09-18T11:01:56;18.70;1.00
12413;DHT22;13877;18.896;-99.222;2023-09-18T11:04:23;18.80;1.00
12413;DHT22;13877;18.896;-99.222;2023-09-18T11:09:29;18.90;1.00
12413;DHT22;13877;18.896;-99.222;2023-09-18T11:14:58;19.00;1.00
12413;DHT22;13877;18.896;-99.222;2023-09-18T11:17:37;19.00;1.00
12413;DHT22;13877;18.896;-99.222;2023-09-18T11:20:19;19.00;1.00
12413;DHT22;13877;18.896;-99.222;2023-09-18T11:22:58;19.00;1.00
12413;DHT22;13877;18.896;-99.222;2023-09-18T11:25:38;19.00;1.00
12413;DHT22;13877;18.896;-99.222;2023-09-18T11:28:14;18.90;1.00
12413;DHT22;13877;18.896;-99.222;2023-09-18T11:30:55;18.90;1.00
12413;DHT22;13877;18.896;-99.222;2023-09-18T11:33:37;18.90;1.00
12413;DHT22;13877;18.896;-99.222;2023-09-18T11:36:34;18.70;1.00
12413;DHT22;13877;18.896;-99.222;2023-09-18T11:39:01;18.50;1.00
12413;DHT22;13877;18.896;-99.222;2023-09-18T11:41:35;18.30;1.00
12413;DHT22;13877;18.896;-99.222;2023-09-18T11:46:47;18.00;1.00
12413;DHT22;13877;18.896;-99.222;2023-09-18T11:49:22;17.90;1.00
12413;DHT22;13877;18.896;-99.222;2023-09-18T11:51:53;18.00;1.00
12413;DHT22;13877;18.896;-99.222;2023-09-18T11:54:21;18.00;1.00
12413;DHT22;13877;18.896;-99.222;2023-09-18T11:56:48;18.10;1.00
12413;DHT22;13877;18.896;-99.222;2023-09-18T11:59:15;18.20;1.00
12413;DHT22;13877;18.896;-99.222;2023-09-18T12:01:44;18.20;1.00
12413;DHT22;13877;18.896;-99.222;2023-09-18T12:04:27;18.40;1.00
12413;DHT22;13877;18.896;-99.222;2023-09-18T12:06:56;18.50;1.00
12413;DHT22;13877;18.896;-99.222;2023-09-18T12:09:23;18.60;1.00
12413;DHT22;13877;18.896;-99.222;2023-09-18T12:11:52;18.70;1.00
12413;DHT22;13877;18.896;-99.222;2023-09-18T12:14:23;18.80;1.00
12413;DHT22;13877;18.896;-99.222;2023-09-18T12:16:51;18.90;1.00
12413;DHT22;13877;18.896;-99.222;2023-09-18T12:19:18;19.00;1.00
12413;DHT22;13877;18.896;-99.222;2023-09-18T12:21:46;19.10;1.00
12413;DHT22;13877;18.896;-99.222;2023-09-18T12:24:24;19.10;1.00
12413;DHT22;13877;18.896;-99.222;2023-09-18T12:26:52;19.10;1.00
12413;DHT22;13877;18.896;-99.222;2023-09-18T12:29:20;19.10;1.00
12413;DHT22;13877;18.896;-99.222;2023-09-18T12:31:48;19.00;1.00
12413;DHT22;13877;18.896;-99.222;2023-09-18T12:34:21;19.00;1.00
12413;DHT22;13877;18.896;-99.222;2023-09-18T12:36:50;19.00;1.00
12413;DHT22;13877;18.896;-99.222;2023-09-18T12:39:18;19.10;1.00
12413;DHT22;13877;18.896;-99.222;2023-09-18T12:41:47;19.20;1.00
12413;DHT22;13877;18.896;-99.222;2023-09-18T12:44:15;19.40;1.00
12413;DHT22;13877;18.896;-99.222;2023-09-18T12:46:44;19.40;1.00
12413;DHT22;13877;18.896;-99.222;2023-09-18T12:49:19;19.40;1.00
12413;DHT22;13877;18.896;-99.222;2023-09-18T12:52:00;19.40;1.00
12413;DHT22;13877;18.896;-99.222;2023-09-18T12:54:42;19.40;1.00
12413;DHT22;13877;18.896;-99.222;2023-09-18T12:57:11;19.40;1.00
12413;DHT22;13877;18.896;-99.222;2023-09-18T12:59:42;19.60;1.00
12413;DHT22;13877;18.896;-99.222;2023-09-18T13:02:13;19.70;1.00
12413;DHT22;13877;18.896;-99.222;2023-09-18T13:04:40;19.80;1.00
12413;DHT22;13877;18.896;-99.222;2023-09-18T13:07:10;19.90;1.00
12413;DHT22;13877;18.896;-99.222;2023-09-18T13:09:39;20.10;1.00
12413;DHT22;13877;18.896;-99.222;2023-09-18T13:12:07;20.10;1.00
12413;DHT22;13877;18.896;-99.222;2023-09-18T13:15:00;20.20;1.00
12413;DHT22;13877;18.896;-99.222;2023-09-18T13:17:39;20.30;1.00
12413;DHT22;13877;18.896;-99.222;2023-09-18T13:20:11;20.50;1.00
12413;DHT22;13877;18.896;-99.222;2023-09-18T13:22:40;20.70;1.00
12413;DHT22;13877;18.896;-99.222;2023-09-18T13:25:10;20.90;1.00
12413;DHT22;13877;18.896;-99.222;2023-09-18T13:27:40;21.00;1.00
12413;DHT22;13877;18.896;-99.222;2023-09-18T13:30:09;21.00;1.00
12413;DHT22;13877;18.896;-99.222;2023-09-18T13:32:37;21.10;1.00
12413;DHT22;13877;18.896;-99.222;2023-09-18T13:35:04;21.30;1.00
12413;DHT22;13877;18.896;-99.222;2023-09-18T13:37:35;21.30;1.00
12413;DHT22;13877;18.896;-99.222;2023-09-18T13:40:02;21.30;1.00
12413;DHT22;13877;18.896;-99.222;2023-09-18T13:42:33;21.50;1.00
12413;DHT22;13877;18.896;-99.222;2023-09-18T13:45:00;21.50;1.00
12413;DHT22;13877;18.896;-99.222;2023-09-18T13:47:28;21.60;1.00
12413;DHT22;13877;18.896;-99.222;2023-09-18T13:49:55;21.80;1.00
12413;DHT22;13877;18.896;-99.222;2023-09-18T13:52:27;21.80;1.00
12413;DHT22;13877;18.896;-99.222;2023-09-18T13:54:54;21.90;1.00
12413;DHT22;13877;18.896;-99.222;2023-09-18T13:57:22;21.80;1.00
12413;DHT22;13877;18.896;-99.222;2023-09-18T13:59:51;21.90;1.00
12413;DHT22;13877;18.896;-99.222;2023-09-18T14:02:19;22.20;1.00
12413;DHT22;13877;18.896;-99.222;2023-09-18T14:04:47;22.20;1.00
12413;DHT22;13877;18.896;-99.222;2023-09-18T14:07:15;22.60;1.00
12413;DHT22;13877;18.896;-99.222;2023-09-18T14:09:42;22.80;1.00
12413;DHT22;13877;18.896;-99.222;2023-09-18T14:12:09;23.20;1.00
12413;DHT22;13877;18.896;-99.222;2023-09-18T14:14:37;23.70;1.00
12413;DHT22;13877;18.896;-99.222;2023-09-18T14:17:05;23.90;1.00
12413;DHT22;13877;18.896;-99.222;2023-09-18T14:19:32;23.90;1.00
12413;DHT22;13877;18.896;-99.222;2023-09-18T14:21:59;23.70;1.00
12413;DHT22;13877;18.896;-99.222;2023-09-18T14:24:31;23.60;1.00
12413;DHT22;13877;18.896;-99.222;2023-09-18T14:27:01;24.00;1.00
12413;DHT22;13877;18.896;-99.222;2023-09-18T14:29:29;24.00;1.00
12413;DHT22;13877;18.896;-99.222;2023-09-18T14:32:00;23.90;1.00
12413;DHT22;13877;18.896;-99.222;2023-09-18T14:34:27;24.10;1.00
12413;DHT22;13877;18.896;-99.222;2023-09-18T14:36:55;24.20;1.00
12413;DHT22;13877;18.896;-99.222;2023-09-18T14:39:22;24.30;1.00
12413;DHT22;13877;18.896;-99.222;2023-09-18T14:41:49;24.10;1.00
12413;DHT22;13877;18.896;-99.222;2023-09-18T14:44:17;24.50;1.00
12413;DHT22;13877;18.896;-99.222;2023-09-18T14:46:44;24.30;1.00
12413;DHT22;13877;18.896;-99.222;2023-09-18T14:49:11;24.70;1.00
12413;DHT22;13877;18.896;-99.222;2023-09-18T14:51:38;24.80;1.00
12413;DHT22;13877;18.896;-99.222;2023-09-18T14:54:05;24.50;1.00
12413;DHT22;13877;18.896;-99.222;2023-09-18T14:56:34;24.70;1.00
12413;DHT22;13877;18.896;-99.222;2023-09-18T14:59:06;24.60;1.00
12413;DHT22;13877;18.896;-99.222;2023-09-18T15:01:37;24.70;1.00
12413;DHT22;13877;18.896;-99.222;2023-09-18T15:04:04;25.10;1.00
12413;DHT22;13877;18.896;-99.222;2023-09-18T15:06:32;25.10;1.00
12413;DHT22;13877;18.896;-99.222;2023-09-18T15:09:00;25.40;1.00
12413;DHT22;13877;18.896;-99.222;2023-09-18T15:11:29;25.50;1.00
12413;DHT22;13877;18.896;-99.222;2023-09-18T15:13:56;25.60;1.00
12413;DHT22;13877;18.896;-99.222;2023-09-18T15:16:24;25.90;1.00
12413;DHT22;13877;18.896;-99.222;2023-09-18T15:18:52;26.00;1.00
12413;DHT22;13877;18.896;-99.222;2023-09-18T15:21:20;26.50;1.00
12413;DHT22;13877;18.896;-99.222;2023-09-18T15:23:47;26.80;1.00
12413;DHT22;13877;18.896;-99.222;2023-09-18T15:26:17;26.90;1.00
12413;DHT22;13877;18.896;-99.222;2023-09-18T15:28:44;26.70;1.00
12413;DHT22;13877;18.896;-99.222;2023-09-18T15:31:12;27.00;1.00
12413;DHT22;13877;18.896;-99.222;2023-09-18T15:33:39;26.90;1.00
12413;DHT22;13877;18.896;-99.222;2023-09-18T15:36:08;26.90;1.00
12413;DHT22;13877;18.896;-99.222;2023-09-18T15:38:35;27.30;1.00
12413;DHT22;13877;18.896;-99.222;2023-09-18T15:41:02;27.10;1.00
12413;DHT22;13877;18.896;-99.222;2023-09-18T15:43:29;26.40;1.00
12413;DHT22;13877;18.896;-99.222;2023-09-18T15:45:58;26.90;1.00
12413;DHT22;13877;18.896;-99.222;2023-09-18T15:48:27;26.80;1.00